sensor_id;sensor_type;location;lat;lon;timestamp;pressure;altitude;pressure_sealevel;temperature;humidity
61682;BME280;47577;43.610;25.010;2023-04-29T00:01:53;100623.38;;;5.88;79.49
61682;BME280;47577;43.610;25.010;2023-04-29T00:04:24;100629.47;;;5.91;79.73
61682;BME280;47577;43.610;25.010;2023-04-29T00:06:49;100633.00;;;5.96;78.63
61682;BME280;47577;43.610;25.010;2023-04-29T00:09:15;100626.00;;;5.89;79.30
61682;BME280;47577;43.610;25.010;2023-04-29T00:11:41;100628.59;;;5.94;79.95
61682;BME280;47577;43.610;25.010;2023-04-29T00:14:06;100623.28;;;5.98;78.76
61682;BME280;47577;43.610;25.010;2023-04-29T00:16:32;100610.28;;;5.80;79.34
61682;BME280;47577;43.610;25.010;2023-04-29T00:18:58;100618.16;;;5.81;81.11
61682;BME280;47577;43.610;25.010;2023-04-29T00:21:24;100610.09;;;5.98;80.06
61682;BME280;47577;43.610;25.010;2023-04-29T00:23:51;100620.38;;;6.20;78.72
61682;BME280;47577;43.610;25.010;2023-04-29T00:26:17;100616.09;;;6.11;79.46
61682;BME280;47577;43.610;25.010;2023-04-29T00:28:43;100614.34;;;6.12;78.70
61682;BME280;47577;43.610;25.010;2023-04-29T00:31:08;100608.31;;;6.00;79.63
61682;BME280;47577;43.610;25.010;2023-04-29T00:33:34;100599.03;;;5.61;81.42
61682;BME280;47577;43.610;25.010;2023-04-29T00:36:00;100592.75;;;5.73;81.34
61682;BME280;47577;43.610;25.010;2023-04-29T00:38:26;100603.81;;;6.09;80.58
61682;BME280;47577;43.610;25.010;2023-04-29T00:40:52;100602.16;;;6.00;78.75
61682;BME280;47577;43.610;25.010;2023-04-29T00:43:17;100599.56;;;5.94;80.13
61682;BME280;47577;43.610;25.010;2023-04-29T00:45:44;100595.13;;;5.94;80.23
61682;BME280;47577;43.610;25.010;2023-04-29T00:48:11;100584.59;;;5.93;79.97
61682;BME280;47577;43.610;25.010;2023-04-29T00:50:37;100597.69;;;6.05;79.80
61682;BME280;47577;43.610;25.010;2023-04-29T00:53:03;100595.03;;;6.07;79.90
61682;BME280;47577;43.610;25.010;2023-04-29T00:55:29;100595.06;;;6.05;79.42
61682;BME280;47577;43.610;25.010;2023-04-29T00:57:56;100616.00;;;6.22;78.34
61682;BME280;47577;43.610;25.010;2023-04-29T01:00:21;100607.72;;;5.74;80.30
61682;BME280;47577;43.610;25.010;2023-04-29T01:02:48;100611.19;;;5.76;81.21
61682;BME280;47577;43.610;25.010;2023-04-29T01:05:14;100603.97;;;5.92;79.76
61682;BME280;47577;43.610;25.010;2023-04-29T01:10:53;100619.78;;;5.98;80.70
61682;BME280;47577;43.610;25.010;2023-04-29T01:18:31;100628.44;;;6.11;79.06
61682;BME280;47577;43.610;25.010;2023-04-29T01:20:58;100622.31;;;6.06;79.28
61682;BME280;47577;43.610;25.010;2023-04-29T01:23:28;100627.72;;;5.95;79.74
61682;BME280;47577;43.610;25.010;2023-04-29T01:25:54;100624.34;;;5.80;79.89
61682;BME280;47577;43.610;25.010;2023-04-29T01:31:13;100632.31;;;5.74;80.19
61682;BME280;47577;43.610;25.010;2023-04-29T01:33:46;100642.09;;;5.63;82.14
61682;BME280;47577;43.610;25.010;2023-04-29T01:38:56;100627.00;;;5.79;79.26
61682;BME280;47577;43.610;25.010;2023-04-29T01:41:56;100624.47;;;5.68;80.12
61682;BME280;47577;43.610;25.010;2023-04-29T01:44:26;100621.06;;;5.57;79.80
61682;BME280;47577;43.610;25.010;2023-04-29T01:46:54;100621.09;;;5.52;81.49
61682;BME280;47577;43.610;25.010;2023-04-29T01:49:27;100620.28;;;5.44;80.98
61682;BME280;47577;43.610;25.010;2023-04-29T01:51:53;100621.38;;;5.20;82.02
61682;BME280;47577;43.610;25.010;2023-04-29T01:54:19;100611.00;;;5.00;81.66
61682;BME280;47577;43.610;25.010;2023-04-29T01:56:46;100619.72;;;5.06;82.01
61682;BME280;47577;43.610;25.010;2023-04-29T01:59:12;100615.47;;;4.88;81.92
61682;BME280;47577;43.610;25.010;2023-04-29T02:01:38;100602.31;;;4.87;82.02
61682;BME280;47577;43.610;25.010;2023-04-29T02:04:04;100615.50;;;4.84;82.17
61682;BME280;47577;43.610;25.010;2023-04-29T02:06:29;100607.63;;;4.76;82.47
61682;BME280;47577;43.610;25.010;2023-04-29T02:08:57;100600.63;;;4.76;82.86
61682;BME280;47577;43.610;25.010;2023-04-29T02:11:22;100611.16;;;4.76;82.04
61682;BME280;47577;43.610;25.010;2023-04-29T02:13:48;100605.13;;;4.61;82.45
61682;BME280;47577;43.610;25.010;2023-04-29T02:16:14;100610.44;;;4.50;83.68
61682;BME280;47577;43.610;25.010;2023-04-29T02:18:41;100620.06;;;4.57;82.68
61682;BME280;47577;43.610;25.010;2023-04-29T02:21:07;100609.53;;;4.58;83.41
61682;BME280;47577;43.610;25.010;2023-04-29T02:23:34;100606.91;;;4.54;83.12
61682;BME280;47577;43.610;25.010;2023-04-29T02:25:59;100601.69;;;4.45;81.77
61682;BME280;47577;43.610;25.010;2023-04-29T02:28:26;100602.66;;;4.31;82.77
61682;BME280;47577;43.610;25.010;2023-04-29T02:30:52;100606.13;;;4.33;84.45
61682;BME280;47577;43.610;25.010;2023-04-29T02:33:17;100614.88;;;4.42;83.57
61682;BME280;47577;43.610;25.010;2023-04-29T02:35:43;100615.84;;;4.20;84.31
61682;BME280;47577;43.610;25.010;2023-04-29T02:38:09;100608.81;;;4.24;83.80
61682;BME280;47577;43.610;25.010;2023-04-29T02:40:43;100615.81;;;4.33;83.43
61682;BME280;47577;43.610;25.010;2023-04-29T02:43:09;100602.69;;;4.24;83.43
61682;BME280;47577;43.610;25.010;2023-04-29T02:45:36;100599.16;;;4.29;83.20
61682;BME280;47577;43.610;25.010;2023-04-29T02:48:04;100616.69;;;4.30;82.39
61682;BME280;47577;43.610;25.010;2023-04-29T02:50:29;100617.63;;;4.20;83.26
61682;BME280;47577;43.610;25.010;2023-04-29T02:52:55;100624.59;;;4.22;82.85
61682;BME280;47577;43.610;25.010;2023-04-29T02:55:22;100623.75;;;4.20;83.78
61682;BME280;47577;43.610;25.010;2023-04-29T02:57:47;100622.91;;;4.11;83.57
61682;BME280;47577;43.610;25.010;2023-04-29T03:00:13;100622.03;;;4.10;83.94
61682;BME280;47577;43.610;25.010;2023-04-29T03:02:38;100616.78;;;4.06;83.51
61682;BME280;47577;43.610;25.010;2023-04-29T03:05:05;100629.16;;;3.71;84.53
61682;BME280;47577;43.610;25.010;2023-04-29T03:07:31;100631.72;;;3.97;84.46
61682;BME280;47577;43.610;25.010;2023-04-29T03:09:57;100625.63;;;3.88;83.75
61682;BME280;47577;43.610;25.010;2023-04-29T03:12:22;100634.44;;;3.62;86.71
61682;BME280;47577;43.610;25.010;2023-04-29T03:14:48;100630.88;;;3.89;85.56
61682;BME280;47577;43.610;25.010;2023-04-29T03:17:14;100629.97;;;3.92;85.27
61682;BME280;47577;43.610;25.010;2023-04-29T03:19:40;100636.13;;;3.95;85.16
61682;BME280;47577;43.610;25.010;2023-04-29T03:22:05;100634.34;;;3.99;84.28
61682;BME280;47577;43.610;25.010;2023-04-29T03:24:34;100634.38;;;3.97;84.49
61682;BME280;47577;43.610;25.010;2023-04-29T03:27:00;100639.63;;;3.96;85.62
61682;BME280;47577;43.610;25.010;2023-04-29T03:29:25;100639.63;;;3.94;85.39
61682;BME280;47577;43.610;25.010;2023-04-29T03:31:52;100638.84;;;3.58;87.32
61682;BME280;47577;43.610;25.010;2023-04-29T03:34:18;100646.69;;;3.80;87.13
61682;BME280;47577;43.610;25.010;2023-04-29T03:36:44;100643.19;;;3.79;87.83
61682;BME280;47577;43.610;25.010;2023-04-29T03:39:09;100643.09;;;4.07;87.21
61682;BME280;47577;43.610;25.010;2023-04-29T03:41:37;100650.06;;;4.27;87.03
61682;BME280;47577;43.610;25.010;2023-04-29T03:44:03;100655.28;;;4.36;86.57
61682;BME280;47577;43.610;25.010;2023-04-29T03:46:29;100646.44;;;4.46;85.87
61682;BME280;47577;43.610;25.010;2023-04-29T03:48:55;100657.81;;;4.59;86.28
61682;BME280;47577;43.610;25.010;2023-04-29T03:51:25;100652.50;;;4.65;86.39
61682;BME280;47577;43.610;25.010;2023-04-29T03:53:53;100665.69;;;4.61;86.14
61682;BME280;47577;43.610;25.010;2023-04-29T03:56:19;100652.50;;;4.68;85.81
61682;BME280;47577;43.610;25.010;2023-04-29T03:58:44;100640.22;;;4.61;86.11
61682;BME280;47577;43.610;25.010;2023-04-29T04:01:11;100669.03;;;4.90;85.61
61682;BME280;47577;43.610;25.010;2023-04-29T04:03:37;100659.38;;;4.91;85.48
61682;BME280;47577;43.610;25.010;2023-04-29T04:06:02;100662.75;;;5.08;84.87
61682;BME280;47577;43.610;25.010;2023-04-29T04:08:28;100661.81;;;5.20;85.20
61682;BME280;47577;43.610;25.010;2023-04-29T04:10:53;100657.47;;;5.08;87.01
61682;BME280;47577;43.610;25.010;2023-04-29T04:13:19;100673.19;;;5.28;85.92
61682;BME280;47577;43.610;25.010;2023-04-29T04:15:49;100665.94;;;5.49;85.20
61682;BME280;47577;43.610;25.010;2023-04-29T04:18:16;100645.63;;;5.60;84.91
61682;BME280;47577;43.610;25.010;2023-04-29T04:20:42;100663.91;;;5.83;84.14
61682;BME280;47577;43.610;25.010;2023-04-29T04:23:07;100662.03;;;5.96;83.66
61682;BME280;47577;43.610;25.010;2023-04-29T04:25:33;100651.50;;;5.92;84.16
61682;BME280;47577;43.610;25.010;2023-04-29T04:27:58;100649.16;;;5.62;86.61
61682;BME280;47577;43.610;25.010;2023-04-29T04:30:24;100635.63;;;5.95;85.00
61682;BME280;47577;43.610;25.010;2023-04-29T04:32:50;100638.09;;;6.12;84.77
61682;BME280;47577;43.610;25.010;2023-04-29T04:35:16;100649.41;;;6.21;84.85
61682;BME280;47577;43.610;25.010;2023-04-29T04:37:41;100633.53;;;6.26;83.93
61682;BME280;47577;43.610;25.010;2023-04-29T04:40:07;100636.91;;;6.37;84.71
61682;BME280;47577;43.610;25.010;2023-04-29T04:42:33;100647.31;;;6.50;83.12
61682;BME280;47577;43.610;25.010;2023-04-29T04:44:59;100652.81;;;6.31;84.01
61682;BME280;47577;43.610;25.010;2023-04-29T04:47:25;100656.22;;;6.43;84.95
61682;BME280;47577;43.610;25.010;2023-04-29T04:49:51;100640.16;;;6.58;84.18
61682;BME280;47577;43.610;25.010;2023-04-29T04:52:20;100649.56;;;6.79;83.64
61682;BME280;47577;43.610;25.010;2023-04-29T04:54:46;100644.97;;;6.93;84.19
61682;BME280;47577;43.610;25.010;2023-04-29T04:57:12;100653.47;;;7.12;84.31
61682;BME280;47577;43.610;25.010;2023-04-29T04:59:37;100651.53;;;7.22;83.19
61682;BME280;47577;43.610;25.010;2023-04-29T05:02:03;100660.13;;;7.37;82.11
61682;BME280;47577;43.610;25.010;2023-04-29T05:04:29;100651.25;;;7.41;82.97
61682;BME280;47577;43.610;25.010;2023-04-29T05:06:55;100651.09;;;7.52;82.59
61682;BME280;47577;43.610;25.010;2023-04-29T05:09:20;100648.16;;;7.67;81.81
61682;BME280;47577;43.610;25.010;2023-04-29T05:11:46;100662.75;;;7.90;81.44
61682;BME280;47577;43.610;25.010;2023-04-29T05:14:11;100650.22;;;7.99;82.04
61682;BME280;47577;43.610;25.010;2023-04-29T05:16:37;100648.16;;;8.14;83.38
61682;BME280;47577;43.610;25.010;2023-04-29T05:19:03;100647.88;;;8.28;84.12
61682;BME280;47577;43.610;25.010;2023-04-29T05:21:29;100644.06;;;8.44;81.81
61682;BME280;47577;43.610;25.010;2023-04-29T05:23:56;100656.00;;;8.64;79.06
61682;BME280;47577;43.610;25.010;2023-04-29T05:26:22;100650.50;;;8.71;79.06
61682;BME280;47577;43.610;25.010;2023-04-29T05:28:50;100649.25;;;8.89;77.93
61682;BME280;47577;43.610;25.010;2023-04-29T05:31:17;100655.81;;;9.12;76.81
61682;BME280;47577;43.610;25.010;2023-04-29T05:33:42;100643.28;;;9.19;77.14
61682;BME280;47577;43.610;25.010;2023-04-29T05:36:08;100657.03;;;9.35;77.28
61682;BME280;47577;43.610;25.010;2023-04-29T05:38:33;100657.38;;;9.55;76.56
61682;BME280;47577;43.610;25.010;2023-04-29T05:40:59;100657.94;;;9.68;73.64
61682;BME280;47577;43.610;25.010;2023-04-29T05:43:25;100648.06;;;9.73;74.50
61682;BME280;47577;43.610;25.010;2023-04-29T05:45:51;100650.22;;;9.93;73.89
61682;BME280;47577;43.610;25.010;2023-04-29T05:48:17;100657.63;;;10.13;73.35
61682;BME280;47577;43.610;25.010;2023-04-29T05:50:43;100657.38;;;10.22;73.21
61682;BME280;47577;43.610;25.010;2023-04-29T05:53:09;100657.06;;;10.33;71.71
61682;BME280;47577;43.610;25.010;2023-04-29T05:55:35;100643.66;;;10.38;70.98
61682;BME280;47577;43.610;25.010;2023-04-29T05:58:01;100646.75;;;10.54;70.55
61682;BME280;47577;43.610;25.010;2023-04-29T06:00:26;100646.69;;;10.55;68.54
61682;BME280;47577;43.610;25.010;2023-04-29T06:02:52;100647.13;;;10.71;70.13
61682;BME280;47577;43.610;25.010;2023-04-29T06:05:17;100653.78;;;10.85;70.94
61682;BME280;47577;43.610;25.010;2023-04-29T06:07:43;100641.34;;;10.85;70.45
61682;BME280;47577;43.610;25.010;2023-04-29T06:10:09;100648.72;;;11.05;71.72
61682;BME280;47577;43.610;25.010;2023-04-29T06:12:35;100637.84;;;11.13;71.03
61682;BME280;47577;43.610;25.010;2023-04-29T06:15:01;100637.44;;;11.25;68.68
61682;BME280;47577;43.610;25.010;2023-04-29T06:17:26;100634.84;;;11.22;69.68
61682;BME280;47577;43.610;25.010;2023-04-29T06:19:56;100632.00;;;11.28;68.95
61682;BME280;47577;43.610;25.010;2023-04-29T06:22:22;100637.03;;;11.38;68.44
61682;BME280;47577;43.610;25.010;2023-04-29T06:24:48;100642.63;;;11.57;70.10
61682;BME280;47577;43.610;25.010;2023-04-29T06:27:14;100635.13;;;11.68;69.29
61682;BME280;47577;43.610;25.010;2023-04-29T06:29:40;100623.66;;;11.91;69.94
61682;BME280;47577;43.610;25.010;2023-04-29T06:32:06;100628.22;;;12.13;68.83
61682;BME280;47577;43.610;25.010;2023-04-29T06:34:32;100629.97;;;12.14;66.28
61682;BME280;47577;43.610;25.010;2023-04-29T06:36:58;100625.94;;;12.27;68.84
61682;BME280;47577;43.610;25.010;2023-04-29T06:39:24;100622.13;;;12.34;65.34
61682;BME280;47577;43.610;25.010;2023-04-29T06:41:50;100623.38;;;12.48;65.17
61682;BME280;47577;43.610;25.010;2023-04-29T06:44:17;100629.88;;;12.40;61.76
61682;BME280;47577;43.610;25.010;2023-04-29T06:46:43;100623.16;;;12.54;60.60
61682;BME280;47577;43.610;25.010;2023-04-29T06:49:08;100639.34;;;12.71;63.29
61682;BME280;47577;43.610;25.010;2023-04-29T06:51:36;100628.78;;;12.92;65.56
61682;BME280;47577;43.610;25.010;2023-04-29T06:54:02;100631.16;;;12.99;62.81
61682;BME280;47577;43.610;25.010;2023-04-29T06:56:28;100621.28;;;13.02;60.32
61682;BME280;47577;43.610;25.010;2023-04-29T06:58:53;100623.50;;;13.12;55.57
61682;BME280;47577;43.610;25.010;2023-04-29T07:01:19;100627.22;;;13.08;59.00
61682;BME280;47577;43.610;25.010;2023-04-29T07:03:45;100628.19;;;13.07;59.99
61682;BME280;47577;43.610;25.010;2023-04-29T07:06:10;100623.75;;;13.28;59.33
61682;BME280;47577;43.610;25.010;2023-04-29T07:08:36;100620.84;;;13.34;56.98
61682;BME280;47577;43.610;25.010;2023-04-29T07:11:02;100622.03;;;13.49;57.83
61682;BME280;47577;43.610;25.010;2023-04-29T07:13:28;100629.75;;;13.56;56.74
61682;BME280;47577;43.610;25.010;2023-04-29T07:15:54;100634.28;;;13.53;58.33
61682;BME280;47577;43.610;25.010;2023-04-29T07:18:20;100635.03;;;13.78;56.41
61682;BME280;47577;43.610;25.010;2023-04-29T07:20:45;100628.66;;;13.82;55.87
61682;BME280;47577;43.610;25.010;2023-04-29T07:23:12;100614.25;;;13.84;57.26
61682;BME280;47577;43.610;25.010;2023-04-29T07:25:39;100617.53;;;13.91;58.24
61682;BME280;47577;43.610;25.010;2023-04-29T07:28:05;100622.16;;;14.08;60.24
61682;BME280;47577;43.610;25.010;2023-04-29T07:30:30;100631.09;;;14.07;60.63
61682;BME280;47577;43.610;25.010;2023-04-29T07:32:56;100629.13;;;14.11;58.99
61682;BME280;47577;43.610;25.010;2023-04-29T07:35:22;100627.16;;;14.16;58.89
61682;BME280;47577;43.610;25.010;2023-04-29T07:37:48;100627.28;;;14.32;59.48
61682;BME280;47577;43.610;25.010;2023-04-29T07:40:13;100619.72;;;14.22;62.85
61682;BME280;47577;43.610;25.010;2023-04-29T07:42:39;100617.63;;;14.29;59.48
61682;BME280;47577;43.610;25.010;2023-04-29T07:45:05;100615.25;;;14.42;60.83
61682;BME280;47577;43.610;25.010;2023-04-29T07:47:31;100622.56;;;14.38;57.58
61682;BME280;47577;43.610;25.010;2023-04-29T07:49:56;100597.69;;;14.55;59.75
61682;BME280;47577;43.610;25.010;2023-04-29T07:52:22;100612.09;;;14.72;58.72
61682;BME280;47577;43.610;25.010;2023-04-29T07:54:48;100607.66;;;14.90;60.55
61682;BME280;47577;43.610;25.010;2023-04-29T07:57:13;100606.28;;;15.00;56.12
61682;BME280;47577;43.610;25.010;2023-04-29T07:59:39;100593.91;;;14.97;57.84
61682;BME280;47577;43.610;25.010;2023-04-29T08:02:05;100604.59;;;15.16;56.31
61682;BME280;47577;43.610;25.010;2023-04-29T08:04:30;100599.00;;;15.21;55.63
61682;BME280;47577;43.610;25.010;2023-04-29T08:06:56;100604.88;;;15.47;56.24
61682;BME280;47577;43.610;25.010;2023-04-29T08:09:22;100604.34;;;15.39;53.99
61682;BME280;47577;43.610;25.010;2023-04-29T08:11:47;100601.38;;;15.45;54.21
61682;BME280;47577;43.610;25.010;2023-04-29T08:14:14;100589.06;;;15.58;52.64
61682;BME280;47577;43.610;25.010;2023-04-29T08:16:40;100585.00;;;15.86;55.06
61682;BME280;47577;43.610;25.010;2023-04-29T08:19:06;100588.94;;;15.96;50.95
61682;BME280;47577;43.610;25.010;2023-04-29T08:21:31;100575.34;;;15.99;53.61
61682;BME280;47577;43.610;25.010;2023-04-29T08:23:57;100578.00;;;16.17;49.80
61682;BME280;47577;43.610;25.010;2023-04-29T08:26:23;100575.16;;;16.20;49.07
61682;BME280;47577;43.610;25.010;2023-04-29T08:28:48;100576.34;;;16.14;50.83
61682;BME280;47577;43.610;25.010;2023-04-29T08:31:18;100577.75;;;16.37;49.43
61682;BME280;47577;43.610;25.010;2023-04-29T08:33:44;100574.13;;;16.38;51.01
61682;BME280;47577;43.610;25.010;2023-04-29T08:36:10;100573.94;;;16.25;49.04
61682;BME280;47577;43.610;25.010;2023-04-29T08:38:36;100570.94;;;16.32;48.17
61682;BME280;47577;43.610;25.010;2023-04-29T08:41:01;100571.59;;;16.19;45.61
61682;BME280;47577;43.610;25.010;2023-04-29T08:43:27;100577.41;;;16.43;44.63
61682;BME280;47577;43.610;25.010;2023-04-29T08:45:54;100578.53;;;16.55;48.49
61682;BME280;47577;43.610;25.010;2023-04-29T08:48:22;100570.50;;;16.55;46.32
61682;BME280;47577;43.610;25.010;2023-04-29T08:50:48;100578.38;;;16.74;42.96
61682;BME280;47577;43.610;25.010;2023-04-29T08:53:14;100570.88;;;16.65;44.32
61682;BME280;47577;43.610;25.010;2023-04-29T08:55:41;100576.50;;;16.60;45.89
61682;BME280;47577;43.610;25.010;2023-04-29T08:58:08;100570.22;;;16.28;42.17
61682;BME280;47577;43.610;25.010;2023-04-29T09:00:35;100561.38;;;16.26;45.46
61682;BME280;47577;43.610;25.010;2023-04-29T09:05:53;100558.06;;;16.70;42.78
61682;BME280;47577;43.610;25.010;2023-04-29T09:08:21;100568.97;;;16.83;45.43
61682;BME280;47577;43.610;25.010;2023-04-29T09:10:49;100563.56;;;16.99;42.56
61682;BME280;47577;43.610;25.010;2023-04-29T09:13:25;100559.69;;;17.05;42.65
61682;BME280;47577;43.610;25.010;2023-04-29T09:15:51;100552.47;;;17.05;42.69
61682;BME280;47577;43.610;25.010;2023-04-29T09:18:49;100552.97;;;17.12;46.93
61682;BME280;47577;43.610;25.010;2023-04-29T09:21:20;100545.59;;;17.46;45.80
61682;BME280;47577;43.610;25.010;2023-04-29T09:23:51;100544.53;;;17.79;45.64
61682;BME280;47577;43.610;25.010;2023-04-29T09:26:16;100546.13;;;17.67;40.93
61682;BME280;47577;43.610;25.010;2023-04-29T09:28:42;100553.25;;;17.82;43.44
61682;BME280;47577;43.610;25.010;2023-04-29T09:31:12;100544.72;;;17.76;38.81
61682;BME280;47577;43.610;25.010;2023-04-29T09:34:07;100533.91;;;17.92;40.17
61682;BME280;47577;43.610;25.010;2023-04-29T09:39:07;100529.28;;;17.94;43.46
61682;BME280;47577;43.610;25.010;2023-04-29T09:41:58;100519.28;;;17.96;40.68
61682;BME280;47577;43.610;25.010;2023-04-29T09:44:29;100519.84;;;18.01;42.27
61682;BME280;47577;43.610;25.010;2023-04-29T09:46:59;100519.28;;;17.96;40.87
61682;BME280;47577;43.610;25.010;2023-04-29T09:49:36;100508.97;;;17.73;40.69
61682;BME280;47577;43.610;25.010;2023-04-29T09:52:11;100510.47;;;17.94;40.18
61682;BME280;47577;43.610;25.010;2023-04-29T09:54:38;100516.41;;;18.13;40.01
61682;BME280;47577;43.610;25.010;2023-04-29T09:57:06;100512.19;;;18.51;41.33
61682;BME280;47577;43.610;25.010;2023-04-29T09:59:34;100503.91;;;18.54;40.52
61682;BME280;47577;43.610;25.010;2023-04-29T10:02:01;100503.72;;;18.57;39.82
61682;BME280;47577;43.610;25.010;2023-04-29T10:04:34;100512.84;;;18.54;39.83
61682;BME280;47577;43.610;25.010;2023-04-29T10:07:00;100502.03;;;18.69;40.11
61682;BME280;47577;43.610;25.010;2023-04-29T10:09:26;100507.09;;;18.88;38.41
61682;BME280;47577;43.610;25.010;2023-04-29T10:11:53;100503.22;;;18.92;38.64
61682;BME280;47577;43.610;25.010;2023-04-29T10:14:23;100496.50;;;19.12;40.30
61682;BME280;47577;43.610;25.010;2023-04-29T10:17:15;100485.53;;;19.15;38.54
61682;BME280;47577;43.610;25.010;2023-04-29T10:19:59;100498.75;;;19.05;40.01
61682;BME280;47577;43.610;25.010;2023-04-29T10:22:44;100492.00;;;19.25;39.88
61682;BME280;47577;43.610;25.010;2023-04-29T10:25:10;100492.44;;;19.32;39.25
61682;BME280;47577;43.610;25.010;2023-04-29T10:27:36;100489.00;;;19.43;38.01
61682;BME280;47577;43.610;25.010;2023-04-29T10:30:08;100501.59;;;19.16;38.91
61682;BME280;47577;43.610;25.010;2023-04-29T10:32:39;100482.41;;;19.34;37.61
61682;BME280;47577;43.610;25.010;2023-04-29T10:35:07;100491.16;;;18.70;36.42
61682;BME280;47577;43.610;25.010;2023-04-29T10:37:37;100482.59;;;19.05;38.20
61682;BME280;47577;43.610;25.010;2023-04-29T10:42:44;100482.31;;;19.48;35.09
61682;BME280;47577;43.610;25.010;2023-04-29T10:45:32;100488.88;;;19.31;35.99
61682;BME280;47577;43.610;25.010;2023-04-29T10:53:17;100483.16;;;20.13;37.18
61682;BME280;47577;43.610;25.010;2023-04-29T10:55:47;100472.56;;;20.10;38.72
61682;BME280;47577;43.610;25.010;2023-04-29T11:01:06;100473.56;;;20.46;34.51
61682;BME280;47577;43.610;25.010;2023-04-29T11:03:56;100467.63;;;20.17;32.94
61682;BME280;47577;43.610;25.010;2023-04-29T11:09:24;100466.47;;;20.32;35.75
61682;BME280;47577;43.610;25.010;2023-04-29T11:14:35;100457.44;;;20.57;35.96
61682;BME280;47577;43.610;25.010;2023-04-29T11:17:03;100454.81;;;20.69;36.22
61682;BME280;47577;43.610;25.010;2023-04-29T11:19:34;100459.16;;;20.82;35.05
61682;BME280;47577;43.610;25.010;2023-04-29T11:25:01;100445.09;;;21.02;37.32
61682;BME280;47577;43.610;25.010;2023-04-29T11:27:37;100441.06;;;21.07;35.20
61682;BME280;47577;43.610;25.010;2023-04-29T11:30:05;100436.44;;;21.21;34.10
61682;BME280;47577;43.610;25.010;2023-04-29T11:32:35;100452.91;;;21.29;35.45
61682;BME280;47577;43.610;25.010;2023-04-29T11:35:09;100437.06;;;21.24;35.67
61682;BME280;47577;43.610;25.010;2023-04-29T11:37:34;100427.69;;;20.09;33.73
61682;BME280;47577;43.610;25.010;2023-04-29T11:40:01;100442.16;;;20.69;36.46
61682;BME280;47577;43.610;25.010;2023-04-29T11:42:26;100433.75;;;20.85;36.22
61682;BME280;47577;43.610;25.010;2023-04-29T11:44:55;100421.88;;;20.99;35.10
61682;BME280;47577;43.610;25.010;2023-04-29T11:47:29;100424.38;;;21.13;35.90
61682;BME280;47577;43.610;25.010;2023-04-29T11:50:06;100412.47;;;21.16;33.44
61682;BME280;47577;43.610;25.010;2023-04-29T11:52:34;100418.22;;;21.11;31.63
61682;BME280;47577;43.610;25.010;2023-04-29T11:55:02;100424.41;;;21.36;34.53
61682;BME280;47577;43.610;25.010;2023-04-29T11:57:28;100417.94;;;21.50;35.86
61682;BME280;47577;43.610;25.010;2023-04-29T11:59:54;100416.09;;;21.62;31.68
61682;BME280;47577;43.610;25.010;2023-04-29T12:02:22;100412.41;;;21.85;34.52
61682;BME280;47577;43.610;25.010;2023-04-29T12:04:48;100400.97;;;21.82;32.09
61682;BME280;47577;43.610;25.010;2023-04-29T12:07:14;100401.81;;;22.05;33.33
61682;BME280;47577;43.610;25.010;2023-04-29T12:09:44;100407.34;;;22.03;32.59
61682;BME280;47577;43.610;25.010;2023-04-29T12:12:11;100393.13;;;21.79;31.91
61682;BME280;47577;43.610;25.010;2023-04-29T12:14:37;100396.44;;;21.82;33.69
61682;BME280;47577;43.610;25.010;2023-04-29T12:17:04;100381.16;;;21.47;32.49
61682;BME280;47577;43.610;25.010;2023-04-29T12:19:30;100396.03;;;21.30;32.70
61682;BME280;47577;43.610;25.010;2023-04-29T12:21:59;100391.97;;;21.47;33.50
61682;BME280;47577;43.610;25.010;2023-04-29T12:24:27;100390.66;;;21.53;33.07
61682;BME280;47577;43.610;25.010;2023-04-29T12:26:54;100381.25;;;21.34;33.74
61682;BME280;47577;43.610;25.010;2023-04-29T12:29:23;100384.72;;;21.36;32.63
61682;BME280;47577;43.610;25.010;2023-04-29T12:31:50;100371.06;;;21.27;33.03
61682;BME280;47577;43.610;25.010;2023-04-29T12:34:16;100377.31;;;21.05;33.19
61682;BME280;47577;43.610;25.010;2023-04-29T12:36:43;100379.19;;;21.15;33.94
61682;BME280;47577;43.610;25.010;2023-04-29T12:39:12;100368.47;;;21.14;33.34
61682;BME280;47577;43.610;25.010;2023-04-29T12:41:41;100376.75;;;21.46;35.27
61682;BME280;47577;43.610;25.010;2023-04-29T12:44:07;100375.41;;;21.63;33.15
61682;BME280;47577;43.610;25.010;2023-04-29T12:46:39;100372.56;;;21.76;32.93
61682;BME280;47577;43.610;25.010;2023-04-29T12:49:06;100369.94;;;21.97;32.00
61682;BME280;47577;43.610;25.010;2023-04-29T12:51:35;100361.22;;;21.26;31.04
61682;BME280;47577;43.610;25.010;2023-04-29T12:54:03;100367.25;;;21.18;33.19
61682;BME280;47577;43.610;25.010;2023-04-29T12:56:29;100370.56;;;21.22;32.49
61682;BME280;47577;43.610;25.010;2023-04-29T12:58:56;100361.66;;;20.86;31.46
61682;BME280;47577;43.610;25.010;2023-04-29T13:01:22;100354.66;;;20.83;32.99
61682;BME280;47577;43.610;25.010;2023-04-29T13:03:48;100351.38;;;21.02;32.50
61682;BME280;47577;43.610;25.010;2023-04-29T13:06:15;100359.75;;;21.22;34.29
61682;BME280;47577;43.610;25.010;2023-04-29T13:08:42;100345.63;;;21.29;31.83
61682;BME280;47577;43.610;25.010;2023-04-29T13:11:07;100344.88;;;21.27;32.37
61682;BME280;47577;43.610;25.010;2023-04-29T13:13:33;100344.16;;;21.14;33.57
61682;BME280;47577;43.610;25.010;2023-04-29T13:15:59;100339.47;;;21.05;34.36
61682;BME280;47577;43.610;25.010;2023-04-29T13:18:24;100341.88;;;20.74;33.91
61682;BME280;47577;43.610;25.010;2023-04-29T13:20:50;100326.91;;;20.57;32.51
61682;BME280;47577;43.610;25.010;2023-04-29T13:23:16;100338.91;;;20.77;34.25
61682;BME280;47577;43.610;25.010;2023-04-29T13:25:41;100333.06;;;20.94;32.84